Time;durP1;ratioP1;P1;durP2;ratioP2;P2;SDS_P1;SDS_P2;PMS_P1;PMS_P2;Temp;Humidity;BMP_temperature;BMP_pressure;BME280_temperature;BME280_humidity;BME280_pressure;Samples;Min_cycle;Max_cycle;Signal;HPM_P1;HPM_P2
2022/07/24 00:01:35;;;;;;;3.47;3.10;;;14.90;99.90;;;;;;5052130;28;20318;-59
2022/07/24 00:04:04;;;;;;;4.43;2.77;;;14.80;99.90;;;;;;5052891;28;20230;-59
2022/07/24 00:06:33;;;;;;;3.53;2.80;;;14.80;99.90;;;;;;5052851;28;20286;-59
2022/07/24 00:09:01;;;;;;;4.03;2.67;;;14.80;99.90;;;;;;5052608;28;20247;-58
2022/07/24 00:11:30;;;;;;;2.67;2.30;;;14.80;99.90;;;;;;5052504;28;20238;-60
2022/07/24 00:13:58;;;;;;;2.50;2.30;;;14.80;99.90;;;;;;5052944;28;20232;-59
2022/07/24 00:16:28;;;;;;;3.53;2.27;;;14.70;99.90;;;;;;5052266;28;20251;-58
2022/07/24 00:18:57;;;;;;;2.60;2.40;;;14.70;99.90;;;;;;5052579;28;20278;-59
2022/07/24 00:21:25;;;;;;;3.10;2.70;;;14.60;99.90;;;;;;5052407;28;20327;-59
2022/07/24 00:23:53;;;;;;;2.70;2.50;;;14.70;99.90;;;;;;5052338;28;20323;-59
2022/07/24 00:26:21;;;;;;;2.77;2.57;;;14.70;99.90;;;;;;5053840;28;20315;-59
2022/07/24 00:28:49;;;;;;;3.67;3.10;;;14.70;99.90;;;;;;5044166;28;20266;-60
2022/07/24 00:31:18;;;;;;;3.60;2.90;;;14.60;99.90;;;;;;5053436;28;20232;-59
2022/07/24 00:33:48;;;;;;;3.87;2.90;;;14.60;99.90;;;;;;5053744;28;20238;-59
2022/07/24 00:36:17;;;;;;;4.30;3.20;;;14.60;99.90;;;;;;5053548;28;20278;-61
2022/07/24 00:38:45;;;;;;;3.50;3.07;;;14.60;99.90;;;;;;5060255;28;20240;-59
2022/07/24 00:41:14;;;;;;;3.30;3.07;;;14.60;99.90;;;;;;5056765;28;20742;-59
2022/07/24 00:44:06;;;;;;;3.77;3.13;;;14.50;99.90;;;;;;5057097;28;20219;-60
2022/07/24 00:46:36;;;;;;;3.17;2.87;;;14.50;99.90;;;;;;5057342;28;20781;-59
2022/07/24 00:49:07;;;;;;;3.70;3.40;;;14.50;99.90;;;;;;5057230;28;20327;-60
2022/07/24 00:51:47;;;;;;;3.47;3.13;;;14.40;99.90;;;;;;5056648;28;20256;-58
2022/07/24 00:54:17;;;;;;;3.53;3.23;;;14.40;99.90;;;;;;5056987;28;20212;-59
2022/07/24 00:56:50;;;;;;;3.87;3.57;;;14.40;99.90;;;;;;5057137;28;20322;-61
2022/07/24 00:59:19;;;;;;;4.43;3.80;;;14.40;99.90;;;;;;5056176;28;20710;-59
2022/07/24 01:01:48;;;;;;;4.33;3.93;;;14.40;99.90;;;;;;5055275;28;20607;-59
2022/07/24 01:04:18;;;;;;;3.90;3.50;;;14.40;99.90;;;;;;5056186;28;20259;-59
2022/07/24 01:06:48;;;;;;;3.73;3.43;;;14.40;99.90;;;;;;5055785;28;20675;-59
2022/07/24 01:09:17;;;;;;;3.93;3.60;;;14.30;99.90;;;;;;5055471;28;20624;-59
2022/07/24 01:11:45;;;;;;;4.10;3.70;;;14.30;99.90;;;;;;5055442;28;20238;-59
2022/07/24 01:14:15;;;;;;;4.20;3.80;;;14.30;99.90;;;;;;5055259;28;20243;-59
2022/07/24 01:16:43;;;;;;;4.47;4.00;;;14.30;99.90;;;;;;5055030;28;20264;-59
2022/07/24 01:19:15;;;;;;;4.40;4.00;;;14.30;99.90;;;;;;5055442;28;20568;-59
2022/07/24 01:21:50;;;;;;;4.53;4.13;;;14.20;99.90;;;;;;5055393;28;20860;-59
2022/07/24 01:24:19;;;;;;;4.90;4.40;;;14.20;99.90;;;;;;5048361;28;20707;-59
2022/07/24 01:26:48;;;;;;;4.63;4.10;;;14.30;99.90;;;;;;5055248;28;20594;-59
2022/07/24 01:29:16;;;;;;;4.60;4.20;;;14.20;99.90;;;;;;5055197;28;20216;-59
2022/07/24 01:31:45;;;;;;;4.33;3.93;;;14.20;99.90;;;;;;5054898;28;20765;-59
2022/07/24 01:34:13;;;;;;;5.43;4.87;;;14.30;99.90;;;;;;5055308;28;20319;-59
2022/07/24 01:36:42;;;;;;;6.17;4.53;;;14.20;99.90;;;;;;5055314;28;20258;-59
2022/07/24 01:39:12;;;;;;;5.40;4.90;;;14.20;99.90;;;;;;5060228;28;20417;-59
2022/07/24 01:41:40;;;;;;;4.83;4.43;;;14.20;99.90;;;;;;5054734;28;20260;-59
2022/07/24 01:44:08;;;;;;;5.53;4.73;;;14.20;99.90;;;;;;5054960;28;20255;-58
2022/07/24 01:46:36;;;;;;;6.07;5.03;;;14.10;99.90;;;;;;5054863;28;20767;-59
2022/07/24 01:49:05;;;;;;;5.37;4.87;;;14.10;99.90;;;;;;5054392;28;20250;-59
2022/07/24 01:51:33;;;;;;;6.33;4.30;;;14.20;99.90;;;;;;5054607;28;20251;-59
2022/07/24 01:54:02;;;;;;;5.17;4.77;;;14.10;99.90;;;;;;5055189;28;20254;-59
2022/07/24 01:56:32;;;;;;;5.53;4.90;;;14.10;99.90;;;;;;5054690;28;20246;-58
2022/07/24 01:59:00;;;;;;;5.50;4.77;;;14.10;99.90;;;;;;5055049;28;20242;-59
2022/07/24 02:01:34;;;;;;;6.10;4.90;;;14.10;99.90;;;;;;5054218;28;20234;-59
2022/07/24 02:04:02;;;;;;;5.80;5.07;;;14.10;99.90;;;;;;5054788;28;20584;-59
2022/07/24 02:06:31;;;;;;;5.30;4.83;;;14.10;99.90;;;;;;5054732;28;20232;-59
2022/07/24 02:08:59;;;;;;;5.23;4.70;;;14.10;99.90;;;;;;5054892;28;20262;-59
2022/07/24 02:11:27;;;;;;;4.90;4.40;;;14.10;99.90;;;;;;5054449;28;20223;-58
2022/07/24 02:13:59;;;;;;;6.07;5.37;;;14.00;99.90;;;;;;5054281;28;20236;-59
2022/07/24 02:16:27;;;;;;;5.90;5.30;;;14.00;99.90;;;;;;5054227;28;20223;-59
2022/07/24 02:18:56;;;;;;;5.50;5.00;;;14.00;99.90;;;;;;5054402;28;20242;-59
2022/07/24 02:21:25;;;;;;;5.30;4.80;;;14.00;99.90;;;;;;5054551;28;20590;-59
2022/07/24 02:23:53;;;;;;;5.63;5.03;;;14.00;99.90;;;;;;5054365;28;20691;-59
2022/07/24 02:26:21;;;;;;;6.67;5.07;;;14.00;99.90;;;;;;5054248;28;20338;-59
2022/07/24 02:28:49;;;;;;;6.13;5.53;;;14.00;99.90;;;;;;5054304;28;20318;-60
2022/07/24 02:31:18;;;;;;;5.33;4.83;;;14.00;99.90;;;;;;5054004;28;20297;-59
2022/07/24 02:33:47;;;;;;;5.63;5.03;;;14.00;99.90;;;;;;5054457;28;20695;-58
2022/07/24 02:36:15;;;;;;;4.80;4.40;;;14.00;99.90;;;;;;5053871;28;20688;-59
2022/07/24 02:38:43;;;;;;;5.20;4.70;;;13.90;99.90;;;;;;5053713;28;20310;-59
2022/07/24 02:41:11;;;;;;;5.60;5.03;;;14.00;99.90;;;;;;5045811;28;20227;-59
2022/07/24 02:43:39;;;;;;;5.43;4.93;;;14.00;99.90;;;;;;5053787;28;20266;-60
2022/07/24 02:46:07;;;;;;;5.47;4.97;;;14.00;99.90;;;;;;5053422;28;20227;-59
2022/07/24 02:48:37;;;;;;;5.50;5.00;;;13.90;99.90;;;;;;5053560;28;20243;-59
2022/07/24 02:51:06;;;;;;;5.10;4.60;;;13.90;99.90;;;;;;5052644;28;20756;-59
2022/07/24 02:53:34;;;;;;;5.40;4.90;;;14.00;99.90;;;;;;5053510;28;20335;-59
2022/07/24 02:56:02;;;;;;;4.20;3.80;;;13.90;99.90;;;;;;5053982;28;20660;-58
2022/07/24 02:58:30;;;;;;;6.77;4.57;;;14.00;99.90;;;;;;5053630;28;20220;-59
2022/07/24 03:00:58;;;;;;;4.90;4.50;;;13.90;99.90;;;;;;5052707;28;20247;-59
2022/07/24 03:03:27;;;;;;;5.50;4.90;;;13.90;99.90;;;;;;5053195;28;20235;-58
2022/07/24 03:05:56;;;;;;;5.47;4.23;;;13.90;99.90;;;;;;5053916;28;20682;-59
2022/07/24 03:08:24;;;;;;;4.67;4.27;;;13.90;99.90;;;;;;5058490;28;20255;-58
2022/07/24 03:10:52;;;;;;;4.83;4.10;;;13.80;99.90;;;;;;5053697;28;20258;-59
2022/07/24 03:13:20;;;;;;;5.07;4.57;;;13.80;99.90;;;;;;5053182;28;20281;-59
2022/07/24 03:15:49;;;;;;;5.73;5.13;;;13.80;99.90;;;;;;5053256;28;20267;-59
2022/07/24 03:18:17;;;;;;;5.10;4.70;;;13.80;99.90;;;;;;5053056;28;20320;-60
2022/07/24 03:20:51;;;;;;;5.33;4.43;;;13.80;99.90;;;;;;5053565;28;20584;-59
2022/07/24 03:23:20;;;;;;;5.83;4.17;;;13.80;99.90;;;;;;5053408;28;20251;-59
2022/07/24 03:25:48;;;;;;;6.53;4.47;;;13.80;99.90;;;;;;5052872;28;20274;-59
2022/07/24 03:28:16;;;;;;;5.07;4.50;;;13.80;99.90;;;;;;5053366;28;20612;-59
2022/07/24 03:30:44;;;;;;;6.67;5.00;;;13.80;99.90;;;;;;5052797;28;20300;-59
2022/07/24 03:33:12;;;;;;;5.27;4.67;;;13.70;99.90;;;;;;5052988;28;20245;-59
2022/07/24 03:35:40;;;;;;;5.47;4.83;;;13.80;99.90;;;;;;5053194;28;20224;-59
2022/07/24 03:38:09;;;;;;;5.70;4.10;;;13.80;99.90;;;;;;5058102;28;20281;-59
2022/07/24 03:40:39;;;;;;;5.10;4.60;;;13.80;99.90;;;;;;5052832;28;20234;-59
2022/07/24 03:43:07;;;;;;;5.00;4.37;;;13.80;99.90;;;;;;5052977;28;20258;-58
2022/07/24 03:45:35;;;;;;;5.47;4.77;;;13.80;99.90;;;;;;5046411;28;20577;-59
2022/07/24 03:48:07;;;;;;;5.20;4.70;;;13.80;99.90;;;;;;5053032;28;20223;-59
2022/07/24 03:50:35;;;;;;;4.90;4.37;;;13.80;99.90;;;;;;5053035;28;20298;-59
2022/07/24 03:53:04;;;;;;;4.97;4.47;;;13.80;99.90;;;;;;5052883;28;20661;-59
2022/07/24 03:55:33;;;;;;;4.63;4.17;;;13.80;99.90;;;;;;5052872;28;20224;-59
2022/07/24 03:58:03;;;;;;;5.10;3.97;;;13.80;99.90;;;;;;5052809;28;20323;-59
2022/07/24 04:00:31;;;;;;;5.33;4.67;;;13.90;99.90;;;;;;5052391;28;20274;-59
2022/07/24 04:02:59;;;;;;;5.47;4.97;;;13.90;99.90;;;;;;5052784;28;20235;-59
2022/07/24 04:05:27;;;;;;;5.30;4.80;;;14.00;99.90;;;;;;5052485;28;20236;-59
2022/07/24 04:07:55;;;;;;;5.33;4.63;;;14.00;99.90;;;;;;5057829;28;20230;-59
2022/07/24 04:10:23;;;;;;;4.17;3.87;;;14.10;99.90;;;;;;5052480;28;20222;-59
2022/07/24 04:12:52;;;;;;;5.27;4.87;;;14.10;99.90;;;;;;5053680;28;20251;-58
2022/07/24 04:15:21;;;;;;;5.27;4.70;;;14.30;99.90;;;;;;5056503;28;20257;-58
2022/07/24 04:17:50;;;;;;;5.50;4.10;;;14.30;99.90;;;;;;5055888;28;20592;-59
2022/07/24 04:20:18;;;;;;;4.50;3.87;;;14.40;99.90;;;;;;5056216;28;20266;-59
2022/07/24 04:22:47;;;;;;;4.67;4.13;;;14.40;99.90;;;;;;5056541;28;20921;-59
2022/07/24 04:25:15;;;;;;;4.53;4.13;;;14.50;99.90;;;;;;5056922;28;20324;-59
2022/07/24 04:27:44;;;;;;;4.53;4.10;;;14.60;99.90;;;;;;5056354;28;20327;-59
2022/07/24 04:30:13;;;;;;;5.30;4.23;;;14.70;99.90;;;;;;5054797;28;20215;-59
2022/07/24 04:32:43;;;;;;;4.47;4.13;;;14.70;99.90;;;;;;5055508;28;20226;-59
2022/07/24 04:35:11;;;;;;;4.83;4.07;;;14.70;99.90;;;;;;5056115;28;20224;-59
2022/07/24 04:37:39;;;;;;;4.60;4.00;;;14.80;99.90;;;;;;5056098;28;20259;-59
2022/07/24 04:40:08;;;;;;;4.83;4.17;;;14.90;99.90;;;;;;5055655;28;20255;-59
2022/07/24 04:42:37;;;;;;;4.53;3.73;;;15.00;99.90;;;;;;5055934;28;20228;-60
2022/07/24 04:45:06;;;;;;;4.87;3.93;;;15.10;99.90;;;;;;5053696;28;20242;-59
2022/07/24 04:47:34;;;;;;;5.00;3.80;;;15.10;99.90;;;;;;5055852;28;20254;-60
2022/07/24 04:50:05;;;;;;;4.37;3.97;;;15.10;99.90;;;;;;5055880;28;20303;-60
2022/07/24 04:52:33;;;;;;;6.23;3.97;;;15.10;99.90;;;;;;5053103;28;20659;-60
2022/07/24 04:55:01;;;;;;;4.73;3.70;;;15.10;99.90;;;;;;5055943;28;20223;-60
2022/07/24 04:57:29;;;;;;;4.73;3.60;;;15.10;99.90;;;;;;5055394;28;20244;-60
2022/07/24 04:59:57;;;;;;;4.20;3.80;;;15.30;99.90;;;;;;5055780;28;20718;-60
2022/07/24 05:02:26;;;;;;;4.27;3.43;;;15.30;99.90;;;;;;5054826;28;20234;-60
2022/07/24 05:04:54;;;;;;;5.97;4.17;;;15.50;99.90;;;;;;5055312;28;20310;-60
2022/07/24 05:07:23;;;;;;;5.20;3.40;;;15.70;99.90;;;;;;5057567;28;20226;-60
2022/07/24 05:09:51;;;;;;;4.37;3.47;;;15.80;99.90;;;;;;5052857;28;20263;-60
2022/07/24 05:12:19;;;;;;;3.73;3.43;;;15.90;99.90;;;;;;5055617;28;20314;-61
2022/07/24 05:14:47;;;;;;;4.17;3.30;;;16.00;99.90;;;;;;5055167;28;20684;-61
2022/07/24 05:17:16;;;;;;;4.27;3.37;;;16.20;99.90;;;;;;5055491;28;20739;-61
2022/07/24 05:19:44;;;;;;;3.70;3.27;;;16.30;99.90;;;;;;5054892;28;20311;-61
2022/07/24 05:22:12;;;;;;;4.07;3.77;;;16.40;99.90;;;;;;5052913;28;20228;-61
2022/07/24 05:24:41;;;;;;;3.73;3.23;;;16.50;99.90;;;;;;5054734;28;20322;-61
2022/07/24 05:27:10;;;;;;;4.13;3.73;;;16.60;99.90;;;;;;5055359;28;20739;-60
2022/07/24 05:29:39;;;;;;;3.20;2.87;;;16.80;99.90;;;;;;5055063;28;20232;-60
2022/07/24 05:32:08;;;;;;;3.07;2.70;;;16.90;99.90;;;;;;5054472;28;20688;-61
2022/07/24 05:34:37;;;;;;;5.30;3.77;;;17.10;99.90;;;;;;5054925;28;20232;-61
2022/07/24 05:37:08;;;;;;;3.10;2.63;;;17.00;99.90;;;;;;5055147;28;20250;-61
2022/07/24 05:39:37;;;;;;;3.67;2.73;;;17.10;99.90;;;;;;5052366;28;20608;-61
2022/07/24 05:42:06;;;;;;;3.77;3.17;;;17.30;99.90;;;;;;5054460;28;20260;-61
2022/07/24 05:44:34;;;;;;;4.60;3.40;;;17.30;99.90;;;;;;5055364;28;20701;-61
2022/07/24 05:47:02;;;;;;;3.17;2.87;;;17.40;99.90;;;;;;5055328;28;20232;-61
2022/07/24 05:49:34;;;;;;;3.40;3.10;;;17.60;99.90;;;;;;5047278;28;20230;-61
2022/07/24 05:52:02;;;;;;;3.00;2.70;;;18.00;99.90;;;;;;5035082;28;20252;-62
2022/07/24 05:54:36;;;;;;;3.13;2.80;;;18.10;99.90;;;;;;5034764;28;20321;-61
2022/07/24 05:57:06;;;;;;;2.90;2.70;;;18.30;99.90;;;;;;5054521;28;20274;-62
2022/07/24 05:59:34;;;;;;;4.00;2.90;;;18.30;99.90;;;;;;5054796;28;20338;-61
2022/07/24 06:02:03;;;;;;;2.67;2.30;;;18.30;99.90;;;;;;5054318;28;20237;-62
2022/07/24 06:04:32;;;;;;;3.90;2.73;;;18.30;99.90;;;;;;5054242;28;20237;-62
2022/07/24 06:07:01;;;;;;;2.63;2.43;;;18.10;99.90;;;;;;5034782;28;20226;-62
2022/07/24 06:09:29;;;;;;;3.10;2.80;;;18.10;99.90;;;;;;5053171;28;20224;-61
2022/07/24 06:11:57;;;;;;;2.40;2.20;;;18.10;99.90;;;;;;5054754;28;20700;-62
2022/07/24 06:14:27;;;;;;;3.67;2.50;;;18.10;99.90;;;;;;5054883;28;20623;-62
2022/07/24 06:16:55;;;;;;;2.83;1.93;;;18.30;99.90;;;;;;5054594;28;20711;-62
2022/07/24 06:19:23;;;;;;;5.07;2.80;;;18.50;99.90;;;;;;5054809;28;20230;-62
2022/07/24 06:21:51;;;;;;;3.63;2.50;;;18.50;99.90;;;;;;5054603;28;20241;-62
2022/07/24 06:24:19;;;;;;;3.27;2.60;;;18.60;99.90;;;;;;5053736;28;20746;-62
2022/07/24 06:26:47;;;;;;;2.43;2.23;;;18.70;99.90;;;;;;5054382;28;20277;-62
2022/07/24 06:29:37;;;;;;;2.70;2.50;;;19.00;99.90;;;;;;5054506;28;20229;-63
2022/07/24 06:32:06;;;;;;;3.50;2.10;;;19.30;99.90;;;;;;5053745;28;20240;-63
2022/07/24 06:34:34;;;;;;;2.73;1.97;;;19.40;99.90;;;;;;5053749;28;21443;-63
2022/07/24 06:37:02;;;;;;;2.17;1.90;;;19.60;99.90;;;;;;5053194;28;20238;-63
2022/07/24 06:39:30;;;;;;;4.03;2.50;;;19.80;99.90;;;;;;5054042;28;20573;-63
2022/07/24 06:41:58;;;;;;;2.60;2.17;;;19.90;99.90;;;;;;5053917;28;20258;-63
2022/07/24 06:44:29;;;;;;;2.37;2.17;;;20.00;99.90;;;;;;5052844;28;20233;-63
2022/07/24 06:46:58;;;;;;;2.17;2.00;;;20.10;99.90;;;;;;5053459;28;20712;-63
2022/07/24 06:49:26;;;;;;;1.80;1.60;;;20.50;99.90;;;;;;5053380;28;20738;-63
2022/07/24 06:51:55;;;;;;;2.93;2.00;;;20.90;99.90;;;;;;5052863;28;20651;-64
2022/07/24 06:54:23;;;;;;;4.60;1.90;;;21.20;99.90;;;;;;5053751;28;20262;-64
2022/07/24 06:56:51;;;;;;;1.97;1.70;;;21.30;99.90;;;;;;5050869;28;20251;-64
2022/07/24 06:59:19;;;;;;;3.50;2.00;;;21.20;99.90;;;;;;5050184;28;20229;-64
2022/07/24 07:01:47;;;;;;;2.63;1.90;;;21.40;99.90;;;;;;5052873;28;20238;-64
2022/07/24 07:04:17;;;;;;;2.60;1.80;;;21.50;99.90;;;;;;5054069;28;20220;-64
2022/07/24 07:06:45;;;;;;;3.90;1.70;;;21.70;99.90;;;;;;5053749;28;20265;-64
2022/07/24 07:09:13;;;;;;;2.90;1.70;;;21.90;99.90;;;;;;5053591;28;20318;-64
2022/07/24 07:11:41;;;;;;;3.40;2.20;;;21.90;99.90;;;;;;5053349;28;20239;-64
2022/07/24 07:14:18;;;;;;;2.33;1.70;;;22.00;99.90;;;;;;5053395;28;20682;-64
2022/07/24 07:16:46;;;;;;;1.80;1.70;;;22.00;99.90;;;;;;5051989;28;20317;-63
2022/07/24 07:19:15;;;;;;;1.97;1.60;;;22.30;99.90;;;;;;5052728;28;20711;-64
2022/07/24 07:21:44;;;;;;;2.43;1.40;;;22.60;99.90;;;;;;5053276;28;20239;-65
2022/07/24 07:24:12;;;;;;;2.63;1.80;;;22.90;99.90;;;;;;5045490;28;20255;-65
2022/07/24 07:26:41;;;;;;;3.40;1.50;;;23.10;99.90;;;;;;5053475;28;20767;-65
2022/07/24 07:29:09;;;;;;;1.97;1.73;;;23.30;99.90;;;;;;5053024;28;20220;-65
2022/07/24 07:31:37;;;;;;;2.00;1.53;;;23.50;99.90;;;;;;5052184;28;20244;-65
2022/07/24 07:34:06;;;;;;;4.43;1.93;;;23.60;99.90;;;;;;5052997;28;20236;-64
2022/07/24 07:36:34;;;;;;;2.30;1.60;;;23.50;99.90;;;;;;5053291;28;20247;-64
2022/07/24 07:39:04;;;;;;;2.60;1.90;;;23.40;99.90;;;;;;5051888;28;20255;-65
2022/07/24 07:41:33;;;;;;;2.47;1.70;;;23.40;99.90;;;;;;5051563;28;20236;-65
2022/07/24 07:44:01;;;;;;;2.00;1.77;;;23.60;99.90;;;;;;5052618;28;20228;-65
2022/07/24 07:46:30;;;;;;;3.27;1.80;;;24.20;99.90;;;;;;5052382;28;20234;-66
2022/07/24 07:48:58;;;;;;;3.27;1.50;;;24.40;99.90;;;;;;5052447;28;20231;-66
2022/07/24 07:51:26;;;;;;;2.57;1.40;;;24.70;99.90;;;;;;5052740;28;20309;-66
2022/07/24 07:53:54;;;;;;;3.37;1.60;;;25.00;99.90;;;;;;5052442;28;20625;-66
2022/07/24 07:56:24;;;;;;;2.20;1.70;;;25.10;99.90;;;;;;5052520;28;20679;-66
2022/07/24 07:58:52;;;;;;;2.27;1.60;;;25.40;99.90;;;;;;5051939;28;20727;-67
2022/07/24 08:01:27;;;;;;;1.80;1.50;;;25.50;99.90;;;;;;5050394;28;20231;-66
2022/07/24 08:03:56;;;;;;;2.43;1.57;;;25.60;99.90;;;;;;5051078;28;20290;-67
2022/07/24 08:06:24;;;;;;;2.37;1.60;;;25.60;99.90;;;;;;5044679;28;20225;-66
2022/07/24 08:08:53;;;;;;;1.80;1.60;;;25.70;99.90;;;;;;5052143;28;20222;-67
2022/07/24 08:11:24;;;;;;;3.17;1.70;;;25.90;99.90;;;;;;5048375;28;20218;-67
2022/07/24 08:13:55;;;;;;;3.33;1.80;;;26.10;99.90;;;;;;5052437;28;20309;-67
2022/07/24 08:16:23;;;;;;;1.90;1.70;;;26.00;99.90;;;;;;5052171;28;20276;-68
2022/07/24 08:18:51;;;;;;;2.50;1.77;;;26.10;99.90;;;;;;5052572;28;20237;-68
2022/07/24 08:21:19;;;;;;;3.00;1.40;;;25.90;99.90;;;;;;5052858;28;20226;-67
2022/07/24 08:23:48;;;;;;;2.97;1.87;;;26.10;99.90;;;;;;5052438;28;20261;-67
2022/07/24 08:26:16;;;;;;;1.87;1.67;;;26.40;99.90;;;;;;5052237;28;20264;-67
2022/07/24 08:28:46;;;;;;;2.30;1.90;;;26.40;99.90;;;;;;5052065;28;20321;-67
2022/07/24 08:31:14;;;;;;;2.80;2.00;;;26.20;99.90;;;;;;5051340;28;20240;-68
2022/07/24 08:33:42;;;;;;;2.13;1.50;;;26.20;99.90;;;;;;5052665;28;20242;-68
2022/07/24 08:36:10;;;;;;;3.60;1.87;;;26.60;99.90;;;;;;5052042;28;20640;-68
2022/07/24 08:38:38;;;;;;;2.27;1.70;;;26.50;99.90;;;;;;5051371;28;20689;-67
2022/07/24 08:41:07;;;;;;;4.63;2.10;;;26.60;99.90;;;;;;5052284;28;20345;-67
2022/07/24 08:43:35;;;;;;;2.83;2.10;;;26.70;99.90;;;;;;5051827;28;20235;-68
2022/07/24 08:46:09;;;;;;;3.20;1.80;;;26.70;99.90;;;;;;5041754;28;20337;-68
2022/07/24 08:48:38;;;;;;;2.83;1.93;;;27.10;99.90;;;;;;5038047;28;22024;-68
2022/07/24 08:51:06;;;;;;;3.23;1.90;;;27.10;99.90;;;;;;5037865;28;20253;-69
2022/07/24 08:53:34;;;;;;;3.93;2.10;;;27.40;99.90;;;;;;5037272;28;20338;-67
2022/07/24 08:56:03;;;;;;;2.43;2.10;;;27.40;99.90;;;;;;5035224;28;20727;-63
2022/07/24 08:58:31;;;;;;;2.30;2.10;;;27.60;99.90;;;;;;5037299;28;21424;-67
2022/07/24 09:00:59;;;;;;;2.63;2.03;;;27.70;99.90;;;;;;5040607;28;20591;-68
2022/07/24 09:03:29;;;;;;;3.80;1.70;;;27.60;99.90;;;;;;5042050;28;20258;-65
2022/07/24 09:05:59;;;;;;;2.20;1.70;;;27.60;99.90;;;;;;5038765;28;20213;-70
2022/07/24 09:08:27;;;;;;;2.30;1.80;;;27.80;99.90;;;;;;5041837;28;20297;-69
2022/07/24 09:10:58;;;;;;;4.73;2.23;;;27.80;99.90;;;;;;5041612;28;20215;-69
2022/07/24 09:13:32;;;;;;;4.27;2.20;;;27.90;99.90;;;;;;5048733;28;20667;-70
2022/07/24 09:16:00;;;;;;;3.90;2.20;;;28.00;99.90;;;;;;5055084;28;20279;-69
2022/07/24 09:18:34;;;;;;;3.63;2.27;;;28.00;99.90;;;;;;5055173;28;20635;-69
2022/07/24 09:21:13;;;;;;;2.97;1.90;;;28.00;99.90;;;;;;5037595;28;20293;-68
2022/07/24 09:23:44;;;;;;;3.00;1.97;;;28.40;99.90;;;;;;5039783;28;20261;-66
2022/07/24 09:26:13;;;;;;;4.17;2.47;;;28.80;99.90;;;;;;5038435;28;20210;-70
2022/07/24 09:28:51;;;;;;;2.53;2.00;;;28.90;99.90;;;;;;5041485;28;20202;-66
2022/07/24 09:31:21;;;;;;;2.67;1.90;;;28.60;99.90;;;;;;5040593;28;20753;-68
2022/07/24 09:33:51;;;;;;;4.40;2.17;;;28.60;99.90;;;;;;5044591;28;20243;-66
2022/07/24 09:36:20;;;;;;;3.10;2.17;;;28.50;99.90;;;;;;5044917;28;20343;-68
2022/07/24 09:38:50;;;;;;;2.90;1.93;;;28.80;99.90;;;;;;5043351;28;20329;-66
2022/07/24 09:41:22;;;;;;;2.20;2.00;;;29.00;99.90;;;;;;5039634;28;21385;-65
2022/07/24 09:44:02;;;;;;;3.53;1.87;;;29.40;99.90;;;;;;5040563;28;20326;-66
2022/07/24 09:46:47;;;;;;;3.07;2.40;;;29.60;99.90;;;;;;5038329;28;20230;-65
2022/07/24 09:49:21;;;;;;;4.10;2.43;;;29.20;99.90;;;;;;5042752;28;20318;-64
2022/07/24 09:52:10;;;;;;;5.53;2.80;;;29.00;99.90;;;;;;5045283;28;20768;-67
2022/07/24 09:54:39;;;;;;;4.33;2.93;;;29.20;99.90;;;;;;5041774;28;20706;-65
2022/07/24 09:57:20;;;;;;;3.10;2.50;;;29.10;99.90;;;;;;5037727;28;20575;-66
2022/07/24 09:59:50;;;;;;;3.67;2.70;;;29.60;99.90;;;;;;5040016;28;20328;-69
2022/07/24 10:02:26;;;;;;;3.57;2.67;;;30.00;99.90;;;;;;5039447;28;20232;-68
2022/07/24 10:04:58;;;;;;;3.87;2.63;;;29.60;99.90;;;;;;5043355;28;20367;-69
2022/07/24 10:07:28;;;;;;;2.87;2.60;;;29.80;99.90;;;;;;5044630;28;20738;-68
2022/07/24 10:09:58;;;;;;;3.67;2.73;;;30.10;99.90;;;;;;5045317;28;20773;-69
2022/07/24 10:12:30;;;;;;;3.43;2.63;;;30.10;99.90;;;;;;5045745;28;20946;-68
2022/07/24 10:15:00;;;;;;;3.63;2.70;;;30.50;99.90;;;;;;5044197;28;20234;-62
2022/07/24 10:17:57;;;;;;;2.60;2.40;;;30.80;99.90;;;;;;5044331;28;20331;-68
2022/07/24 10:20:39;;;;;;;5.43;3.27;;;30.50;99.90;;;;;;5044670;28;20667;-68
2022/07/24 10:23:22;;;;;;;3.53;3.23;;;30.40;99.90;;;;;;5044434;28;20309;-68
2022/07/24 10:25:56;;;;;;;4.07;3.40;;;30.60;99.90;;;;;;5042492;28;20604;-64
2022/07/24 10:28:37;;;;;;;3.87;3.10;;;30.70;99.90;;;;;;5043836;28;20254;-63
2022/07/24 10:31:07;;;;;;;3.17;2.87;;;30.90;99.90;;;;;;5043565;28;20246;-64
2022/07/24 10:33:38;;;;;;;4.37;3.17;;;31.30;99.90;;;;;;5044001;28;20613;-66
2022/07/24 10:36:16;;;;;;;3.50;3.10;;;31.10;99.90;;;;;;5037169;28;20240;-66
2022/07/24 10:38:56;;;;;;;4.53;3.63;;;30.80;99.90;;;;;;5039970;28;20239;-65
2022/07/24 10:41:26;;;;;;;3.80;3.13;;;30.90;99.90;;;;;;5039203;28;20235;-67
2022/07/24 10:44:15;;;;;;;3.73;3.30;;;30.90;99.90;;;;;;5038840;28;20254;-68
2022/07/24 10:47:01;;;;;;;3.63;3.30;;;30.50;99.90;;;;;;5037129;28;20740;-66
2022/07/24 10:49:49;;;;;;;5.57;3.20;;;30.80;99.90;;;;;;5039983;28;20234;-68
2022/07/24 10:52:27;;;;;;;4.37;3.90;;;31.10;99.90;;;;;;5038969;28;20251;-66
2022/07/24 10:55:26;;;;;;;4.03;3.23;;;31.40;99.40;;;;;;5037448;28;20229;-66
2022/07/24 10:58:13;;;;;;;5.27;3.40;;;31.40;98.60;;;;;;5039029;28;20315;-66
2022/07/24 11:00:45;;;;;;;4.17;3.53;;;31.30;99.90;;;;;;5039111;28;20632;-68
2022/07/24 11:03:20;;;;;;;3.73;3.20;;;31.30;99.50;;;;;;5038313;28;20225;-68
2022/07/24 11:06:05;;;;;;;4.33;3.23;;;31.30;99.90;;;;;;5035830;28;20232;-66
2022/07/24 11:08:38;;;;;;;4.03;3.33;;;31.10;99.10;;;;;;5039027;28;20260;-65
2022/07/24 11:11:15;;;;;;;6.47;3.90;;;31.10;99.20;;;;;;5043422;28;20644;-68
2022/07/24 11:13:48;;;;;;;4.80;3.37;;;30.90;98.90;;;;;;5045421;28;20258;-65
2022/07/24 11:16:33;;;;;;;5.60;3.40;;;31.30;99.70;;;;;;5041419;28;20250;-67
2022/07/24 11:19:27;;;;;;;3.90;3.50;;;31.30;99.90;;;;;;5038959;28;20236;-67
2022/07/24 11:22:10;;;;;;;3.87;3.20;;;31.80;99.90;;;;;;5039176;28;20298;-68
2022/07/24 11:24:58;;;;;;;4.20;3.40;;;32.00;99.00;;;;;;5038669;28;20256;-67
2022/07/24 11:27:26;;;;;;;4.90;3.73;;;32.30;98.90;;;;;;5035863;28;20224;-67
2022/07/24 11:29:56;;;;;;;5.30;3.90;;;32.10;97.90;;;;;;5045638;28;20230;-67
2022/07/24 11:32:30;;;;;;;4.07;3.47;;;31.80;97.90;;;;;;5045739;28;20632;-64
2022/07/24 11:34:59;;;;;;;5.87;3.80;;;31.40;98.60;;;;;;5045802;28;20709;-67
2022/07/24 11:37:31;;;;;;;4.47;3.83;;;31.40;98.30;;;;;;5046682;28;20309;-67
2022/07/24 11:40:06;;;;;;;4.13;3.73;;;31.30;97.90;;;;;;5047191;28;20228;-67
2022/07/24 11:42:35;;;;;;;6.57;3.90;;;31.00;99.20;;;;;;5046841;28;20648;-68
2022/07/24 11:45:05;;;;;;;4.23;3.83;;;30.80;99.60;;;;;;5047049;28;20897;-67
2022/07/24 11:47:33;;;;;;;4.00;3.67;;;30.50;99.60;;;;;;5046935;28;20238;-63
2022/07/24 11:50:04;;;;;;;4.70;4.30;;;30.20;99.90;;;;;;5045461;28;20224;-66
2022/07/24 11:52:34;;;;;;;4.67;3.73;;;29.90;99.90;;;;;;5045743;28;20296;-64
2022/07/24 11:55:07;;;;;;;5.33;4.13;;;29.80;99.90;;;;;;5044871;28;20231;-64
2022/07/24 11:57:45;;;;;;;4.67;4.27;;;29.60;99.90;;;;;;5046074;28;20315;-68
2022/07/24 12:00:33;;;;;;;4.77;4.00;;;29.60;99.90;;;;;;5034049;28;20240;-66
2022/07/24 12:03:03;;;;;;;5.17;4.00;;;29.40;99.90;;;;;;5037701;28;20250;-67
2022/07/24 12:05:34;;;;;;;5.17;4.37;;;29.50;99.90;;;;;;5034232;28;20240;-68
2022/07/24 12:08:04;;;;;;;7.40;4.60;;;29.40;99.90;;;;;;5034573;28;20622;-68
2022/07/24 12:10:35;;;;;;;5.03;4.43;;;29.50;99.90;;;;;;5035530;28;20615;-67
2022/07/24 12:13:04;;;;;;;4.97;4.47;;;29.50;99.90;;;;;;5034433;28;20327;-67
2022/07/24 12:15:32;;;;;;;5.70;4.60;;;29.80;99.90;;;;;;5032373;28;20234;-69
2022/07/24 12:18:02;;;;;;;5.87;4.17;;;29.80;99.90;;;;;;5034883;28;20635;-68
2022/07/24 12:20:33;;;;;;;6.73;4.30;;;30.00;99.70;;;;;;5037810;28;20282;-68
2022/07/24 12:23:03;;;;;;;4.87;4.37;;;30.00;99.90;;;;;;5039945;28;20227;-67
2022/07/24 12:25:34;;;;;;;4.67;4.03;;;29.80;99.90;;;;;;5033369;28;20227;-63
2022/07/24 12:28:05;;;;;;;4.67;3.87;;;29.80;99.90;;;;;;5034403;28;20334;-68
2022/07/24 12:30:35;;;;;;;5.00;4.50;;;29.90;99.90;;;;;;5035790;28;20244;-67
2022/07/24 12:33:05;;;;;;;4.90;4.27;;;30.00;99.90;;;;;;5035008;28;20918;-67
2022/07/24 12:35:35;;;;;;;4.67;4.27;;;29.90;99.80;;;;;;5036728;28;20255;-62
2022/07/24 12:38:03;;;;;;;4.33;3.93;;;29.70;99.80;;;;;;5038955;28;20250;-67
2022/07/24 12:40:35;;;;;;;6.47;4.40;;;29.70;99.90;;;;;;5037807;28;20317;-67
2022/07/24 12:43:09;;;;;;;6.13;4.17;;;29.70;99.50;;;;;;5038238;28;20650;-64
2022/07/24 12:45:38;;;;;;;6.03;4.07;;;29.90;99.90;;;;;;5039664;28;20706;-64
2022/07/24 12:48:21;;;;;;;6.00;4.03;;;30.10;99.90;;;;;;5040813;28;20227;-67
2022/07/24 12:51:09;;;;;;;6.10;4.50;;;30.20;99.50;;;;;;5041083;28;20232;-65
2022/07/24 12:53:39;;;;;;;4.50;4.00;;;30.10;99.10;;;;;;5039479;28;20300;-67
2022/07/24 12:56:12;;;;;;;4.97;4.10;;;30.10;99.70;;;;;;5039168;28;20380;-67
2022/07/24 12:59:00;;;;;;;6.13;3.50;;;30.10;99.30;;;;;;5039762;28;20235;-67
2022/07/24 13:01:47;;;;;;;6.53;4.27;;;30.20;99.70;;;;;;5040690;28;20235;-64
2022/07/24 13:04:18;;;;;;;5.13;4.00;;;30.20;99.40;;;;;;5040747;28;20653;-66
2022/07/24 13:06:49;;;;;;;4.30;3.80;;;30.20;98.60;;;;;;5039356;28;20231;-66